Time;durP1;ratioP1;P1;durP2;ratioP2;P2;SDS_P1;SDS_P2;PMS_P1;PMS_P2;Temp;Humidity;BMP_temperature;BMP_pressure;BME280_temperature;BME280_humidity;BME280_pressure;Samples;Min_cycle;Max_cycle;Signal;HPM_P1;HPM_P2
2022/01/02 00:00:19;;;;;;;10.20;5.00;;;8.80;99.90;;;9.00;67.11;98250.13;5010479;28;20053;-49
2022/01/02 00:02:58;;;;;;;6.27;3.93;;;8.70;99.90;;;8.93;66.88;98253.44;5009428;28;20225;-51
2022/01/02 00:05:28;;;;;;;7.23;3.90;;;8.60;99.90;;;8.90;67.29;98248.41;5009221;28;20412;-52
2022/01/02 00:08:11;;;;;;;5.03;3.80;;;8.60;99.90;;;8.87;67.09;98239.72;5007864;28;20064;-52
2022/01/02 00:10:58;;;;;;;5.13;3.87;;;8.60;99.90;;;8.87;66.90;98245.03;5009867;28;20054;-49
2022/01/02 00:13:35;;;;;;;8.07;4.30;;;8.60;99.90;;;8.84;67.00;98232.06;5010016;28;20243;-49
2022/01/02 00:16:06;;;;;;;7.57;4.50;;;8.50;99.90;;;8.81;66.94;98234.13;5009601;28;20049;-50
2022/01/02 00:18:39;;;;;;;7.00;4.37;;;8.50;99.90;;;8.78;66.84;98231.75;5009531;28;20062;-53
2022/01/02 00:21:07;;;;;;;8.13;5.20;;;8.40;99.90;;;8.68;66.58;98226.41;5011230;28;20383;-51
2022/01/02 00:23:51;;;;;;;6.13;4.23;;;8.30;99.90;;;8.62;66.88;98230.44;5009593;28;20241;-49
2022/01/02 00:26:19;;;;;;;6.50;4.50;;;8.20;99.90;;;8.55;67.00;98224.00;5009987;28;20054;-50
2022/01/02 00:28:48;;;;;;;6.73;5.07;;;8.20;99.90;;;8.55;66.94;98231.09;5010371;28;20293;-51
2022/01/02 00:31:16;;;;;;;6.40;4.23;;;8.10;99.90;;;8.50;66.89;98225.38;5008100;28;20046;-49
2022/01/02 00:33:44;;;;;;;5.10;4.20;;;8.10;99.90;;;8.48;66.95;98222.84;5009130;28;20049;-51
2022/01/02 00:36:13;;;;;;;5.83;4.67;;;8.10;99.90;;;8.47;66.96;98218.50;5009172;28;20056;-49
2022/01/02 00:38:42;;;;;;;5.87;4.07;;;8.10;99.90;;;8.47;67.22;98218.50;5023586;28;20057;-50
2022/01/02 00:41:11;;;;;;;6.63;4.47;;;8.20;99.90;;;8.51;67.22;98219.94;5025066;28;20050;-51
2022/01/02 00:44:17;;;;;;;5.53;5.03;;;8.20;99.90;;;8.55;67.22;98209.88;5008743;28;20045;-49
2022/01/02 00:47:15;;;;;;;17.70;10.90;;;8.30;99.90;;;8.57;66.91;98208.78;5002003;28;20076;-48
2022/01/02 00:50:03;;;;;;;12.40;8.30;;;8.30;99.90;;;8.55;66.89;98200.13;5007509;28;20042;-51
2022/01/02 00:52:41;;;;;;;12.13;6.73;;;8.30;99.90;;;8.54;66.80;98194.94;5009310;28;20046;-48
2022/01/02 00:55:18;;;;;;;9.30;6.07;;;8.30;99.90;;;8.54;66.87;98194.94;5040600;28;20053;-50
2022/01/02 00:58:11;;;;;;;8.77;5.73;;;8.20;99.90;;;8.53;66.92;98188.81;5008801;28;20053;-48
2022/01/02 01:00:49;;;;;;;7.87;5.40;;;8.30;99.90;;;8.49;66.68;98192.66;5039687;28;20048;-49
2022/01/02 01:03:29;;;;;;;9.70;6.83;;;8.20;99.90;;;8.43;66.73;98179.94;5039236;28;20053;-49
2022/01/02 01:06:01;;;;;;;10.70;6.57;;;8.20;99.90;;;8.39;66.92;98174.03;5006790;28;20054;-52
2022/01/02 01:08:32;;;;;;;9.97;6.63;;;8.10;99.90;;;8.38;66.91;98177.69;5024871;28;20064;-52
2022/01/02 01:11:04;;;;;;;8.60;5.43;;;8.10;99.90;;;8.36;67.02;98176.97;5008415;28;20491;-51
2022/01/02 01:13:32;;;;;;;7.73;5.30;;;8.10;99.90;;;8.37;66.95;98170.66;5007442;28;20076;-50
2022/01/02 01:16:02;;;;;;;7.23;4.87;;;8.10;99.90;;;8.39;67.08;98179.34;5022226;28;20274;-47
2022/01/02 01:18:30;;;;;;;14.03;4.90;;;8.10;99.90;;;8.40;66.85;98169.59;5007006;28;20386;-51
2022/01/02 01:20:58;;;;;;;6.03;4.43;;;8.20;99.90;;;8.40;67.10;98174.91;5008516;28;20056;-49
2022/01/02 01:23:26;;;;;;;6.77;4.23;;;8.10;99.90;;;8.37;67.06;98165.38;5040006;28;20053;-52
2022/01/02 01:25:55;;;;;;;7.10;4.43;;;8.10;99.90;;;8.39;67.27;98160.75;5039379;28;20053;-52
2022/01/02 01:28:23;;;;;;;6.30;3.47;;;8.10;99.90;;;8.43;67.26;98156.06;5039223;28;20054;-50
2022/01/02 01:30:51;;;;;;;7.13;3.90;;;8.20;99.90;;;8.46;67.28;98161.94;5007199;28;20689;-48
2022/01/02 01:33:18;;;;;;;6.10;3.73;;;8.20;99.90;;;8.51;67.44;98161.56;5007260;28;20050;-49
2022/01/02 01:35:46;;;;;;;5.03;3.53;;;8.30;99.90;;;8.51;67.46;98153.59;5008483;28;20054;-49
2022/01/02 01:38:14;;;;;;;6.87;3.90;;;8.30;99.90;;;8.53;67.57;98153.44;5007979;28;20240;-48
2022/01/02 01:41:23;;;;;;;3.90;2.90;;;8.30;99.90;;;8.55;67.35;98152.34;5039591;28;20058;-48
2022/01/02 01:44:07;;;;;;;5.87;3.27;;;8.40;99.90;;;8.59;67.33;98151.09;4990780;28;20352;-49
2022/01/02 01:46:37;;;;;;;7.63;4.17;;;8.40;99.90;;;8.63;67.31;98157.81;5038808;28;20067;-48
2022/01/02 01:49:16;;;;;;;4.93;3.37;;;8.40;99.90;;;8.65;67.17;98158.50;5007280;28;20244;-49
2022/01/02 01:51:45;;;;;;;5.43;3.73;;;8.50;99.90;;;8.66;67.12;98159.34;5038827;28;20058;-47
2022/01/02 01:54:14;;;;;;;5.47;3.37;;;8.40;99.90;;;8.64;66.84;98148.84;5006590;28;20046;-49
2022/01/02 01:56:43;;;;;;;4.53;3.30;;;8.40;99.90;;;8.61;66.97;98141.19;5038277;28;20058;-48
2022/01/02 01:59:11;;;;;;;5.93;3.20;;;8.30;99.90;;;8.59;67.02;98145.78;5039549;28;20265;-47
2022/01/02 02:01:39;;;;;;;5.93;3.80;;;8.30;99.90;;;8.60;66.95;98150.09;5021303;28;20060;-47
2022/01/02 02:04:07;;;;;;;5.57;3.60;;;8.30;99.90;;;8.60;66.95;98149.28;5037531;28;20346;-49
2022/01/02 02:06:36;;;;;;;6.60;4.73;;;8.30;99.90;;;8.57;66.89;98141.56;5006168;28;20042;-48
2022/01/02 02:09:06;;;;;;;4.60;3.43;;;8.30;99.90;;;8.55;67.00;98136.44;5008485;28;20058;-49
2022/01/02 02:11:39;;;;;;;5.73;3.53;;;8.30;99.90;;;8.52;67.06;98128.72;5039236;28;20060;-51
2022/01/02 02:14:08;;;;;;;4.15;2.85;;;8.20;99.90;;;8.51;66.87;98123.53;5005571;28;20054;-52
2022/01/02 02:16:37;;;;;;;4.77;3.70;;;8.20;99.90;;;8.48;66.57;98116.72;5021703;28;20046;-48
2022/01/02 02:19:06;;;;;;;5.10;3.40;;;8.20;99.90;;;8.47;66.84;98107.91;5007305;28;20454;-52
2022/01/02 02:21:38;;;;;;;6.33;4.30;;;8.20;99.90;;;8.47;67.12;98104.41;5040213;28;20060;-51
2022/01/02 02:24:08;;;;;;;6.45;3.75;;;8.20;99.90;;;8.47;66.98;98107.06;5039166;28;20363;-49
2022/01/02 02:26:38;;;;;;;5.40;3.13;;;8.20;99.90;;;8.47;67.06;98099.94;5039384;28;20061;-49
2022/01/02 02:29:06;;;;;;;4.27;2.90;;;8.20;99.90;;;8.46;66.95;98094.78;4990588;28;20065;-52
2022/01/02 02:31:35;;;;;;;5.47;3.17;;;8.20;99.90;;;8.44;66.92;98094.91;5039425;28;20060;-51
2022/01/02 02:34:03;;;;;;;5.87;3.30;;;8.10;99.90;;;8.40;66.94;98092.66;5021459;28;20049;-52
2022/01/02 02:36:31;;;;;;;3.93;2.80;;;8.10;99.90;;;8.36;66.87;98085.94;5006089;28;20038;-49
2022/01/02 02:38:59;;;;;;;5.47;3.80;;;8.00;99.90;;;8.35;66.88;98082.41;5007446;28;20048;-50
2022/01/02 02:41:32;;;;;;;4.40;3.27;;;8.00;99.90;;;8.33;67.00;98080.88;5039437;28;20052;-50
2022/01/02 02:44:10;;;;;;;6.30;3.77;;;8.00;99.90;;;8.34;67.13;98072.81;5038855;28;20057;-50
2022/01/02 02:49:24;;;;;;;6.67;3.33;;;8.00;99.90;;;8.34;66.79;98066.66;5039446;28;20064;-52
2022/01/02 02:51:57;;;;;;;6.43;3.03;;;8.10;99.90;;;8.37;66.86;98063.72;5007329;28;20058;-52
2022/01/02 02:54:32;;;;;;;5.33;2.80;;;8.20;99.90;;;8.42;66.93;98049.09;5039428;28;20379;-50
2022/01/02 02:57:03;;;;;;;3.83;2.97;;;8.20;99.90;;;8.47;66.91;98053.97;5038078;28;20054;-51
2022/01/02 02:59:35;;;;;;;3.43;2.63;;;8.30;99.90;;;8.47;66.73;98054.84;5039159;28;20229;-52
2022/01/02 03:02:05;;;;;;;3.97;2.97;;;8.30;99.90;;;8.50;66.79;98050.25;5020256;28;20061;-52
2022/01/02 03:04:40;;;;;;;5.40;3.57;;;8.30;99.90;;;8.51;66.90;98050.09;5037616;28;20053;-49
2022/01/02 03:07:07;;;;;;;2.80;2.50;;;8.30;99.90;;;8.52;66.77;98048.28;5006665;28;20260;-49
2022/01/02 03:09:41;;;;;;;3.83;2.83;;;8.30;99.90;;;8.52;66.60;98051.75;5006349;28;20053;-54
2022/01/02 03:12:11;;;;;;;4.87;3.40;;;8.30;99.90;;;8.54;66.56;98065.72;5036595;28;20359;-48
2022/01/02 03:14:43;;;;;;;4.70;2.70;;;8.30;99.90;;;8.51;66.45;98063.38;5037591;28;20054;-49
2022/01/02 03:17:12;;;;;;;3.30;2.33;;;8.30;99.90;;;8.48;66.60;98060.97;5038038;28;20058;-53
2022/01/02 03:19:40;;;;;;;4.13;3.10;;;8.20;99.90;;;8.46;66.57;98054.97;5008968;28;20370;-47
2022/01/02 03:22:12;;;;;;;3.43;2.43;;;8.20;99.90;;;8.42;66.23;98054.41;5026673;28;20053;-50
2022/01/02 03:24:40;;;;;;;4.13;3.10;;;8.10;99.90;;;8.38;66.54;98058.28;5043828;28;20059;-51
2022/01/02 03:27:08;;;;;;;6.13;4.30;;;8.10;99.90;;;8.31;66.22;98051.84;5025592;28;20061;-49
2022/01/02 03:29:36;;;;;;;4.77;3.20;;;8.00;99.90;;;8.28;66.55;98041.53;5011230;28;20060;-53
2022/01/02 03:32:04;;;;;;;5.37;3.40;;;8.00;99.90;;;8.25;66.38;98044.44;5010801;28;20671;-51
2022/01/02 03:34:32;;;;;;;4.93;3.50;;;7.90;99.90;;;8.21;66.13;98051.00;5025519;28;20068;-50
2022/01/02 03:37:00;;;;;;;6.33;3.87;;;7.90;99.90;;;8.20;66.31;98038.69;5042787;28;20057;-48
2022/01/02 03:39:30;;;;;;;4.33;3.00;;;7.90;99.90;;;8.19;66.46;98031.72;5009286;28;20058;-49
2022/01/02 03:41:59;;;;;;;5.67;3.23;;;7.80;99.90;;;8.17;66.53;98036.31;5042118;28;20200;-51
2022/01/02 03:44:27;;;;;;;4.03;2.70;;;7.80;99.90;;;8.15;66.20;98028.50;5010560;28;20344;-48
2022/01/02 03:46:55;;;;;;;3.70;2.90;;;7.80;99.90;;;8.17;66.64;98031.03;5025661;28;20060;-52
2022/01/02 03:49:23;;;;;;;4.27;3.03;;;7.90;99.90;;;8.19;66.74;98032.56;5008761;28;20072;-50
2022/01/02 03:51:51;;;;;;;4.33;3.33;;;7.90;99.90;;;8.20;66.46;98034.25;5010548;28;20064;-49
2022/01/02 03:54:19;;;;;;;3.70;3.17;;;7.90;99.90;;;8.21;66.52;98022.66;5026547;28;20056;-48
2022/01/02 03:56:50;;;;;;;6.23;2.90;;;7.90;99.90;;;8.21;66.31;98019.16;5024512;28;20239;-50
2022/01/02 03:59:19;;;;;;;4.43;2.60;;;7.90;99.70;;;8.16;66.21;98011.63;5042991;28;20054;-48
2022/01/02 04:01:47;;;;;;;3.67;2.97;;;7.80;99.30;;;8.11;66.41;98013.84;5010910;28;20058;-50
2022/01/02 04:04:16;;;;;;;4.73;3.37;;;7.80;99.90;;;7.98;66.13;98019.38;5009046;28;20062;-50
2022/01/02 04:06:45;;;;;;;5.60;4.13;;;7.60;99.30;;;7.92;66.33;98014.63;5009389;28;20325;-47
2022/01/02 04:09:13;;;;;;;4.53;2.60;;;7.60;99.90;;;7.93;66.46;98004.84;5009992;28;20054;-48
2022/01/02 04:11:41;;;;;;;3.90;2.93;;;7.60;99.90;;;7.96;66.54;97999.28;5024553;28;20050;-52
2022/01/02 04:14:09;;;;;;;4.30;2.60;;;7.60;99.90;;;7.97;66.68;98004.47;5025343;28;20079;-49
2022/01/02 04:16:37;;;;;;;6.17;2.53;;;7.70;99.90;;;8.00;66.69;98001.53;5023872;28;20245;-51
2022/01/02 04:19:05;;;;;;;4.73;2.97;;;7.80;99.90;;;8.03;66.50;97995.97;5024532;28;20053;-48
2022/01/02 04:21:33;;;;;;;5.70;3.63;;;7.80;99.90;;;8.04;66.46;98005.56;5009282;28;20041;-52
2022/01/02 04:24:01;;;;;;;4.50;3.30;;;7.80;99.90;;;8.03;66.68;97993.31;5041267;28;20060;-53
2022/01/02 04:26:30;;;;;;;5.00;3.40;;;7.80;99.90;;;8.06;66.40;97987.75;5024801;28;20050;-47
2022/01/02 04:28:58;;;;;;;6.47;3.60;;;8.00;99.90;;;8.09;66.58;97983.97;5024517;28;20070;-50
2022/01/02 04:31:26;;;;;;;6.20;4.40;;;7.90;99.90;;;8.09;66.49;97986.63;5010412;28;20061;-48
2022/01/02 04:33:54;;;;;;;6.17;5.07;;;7.90;99.40;;;8.08;66.51;97985.78;5041915;28;20084;-48
2022/01/02 04:36:22;;;;;;;4.80;4.17;;;7.90;99.60;;;8.11;66.57;97987.31;5025491;28;20054;-52
2022/01/02 04:38:51;;;;;;;7.27;3.90;;;7.90;99.50;;;8.12;66.58;97988.97;5023405;28;20249;-51
2022/01/02 04:41:19;;;;;;;5.07;4.07;;;7.90;99.70;;;8.16;66.53;97986.91;5009244;28;20046;-49
2022/01/02 04:43:46;;;;;;;4.87;3.83;;;8.00;99.50;;;8.16;66.80;97979.81;5008607;28;20053;-49
2022/01/02 04:46:14;;;;;;;5.10;3.20;;;8.00;99.50;;;8.21;66.60;97980.22;5009229;28;20259;-50
2022/01/02 04:48:42;;;;;;;4.27;3.23;;;8.00;99.50;;;8.21;66.70;97966.94;5007930;28;20064;-53
2022/01/02 04:51:11;;;;;;;3.83;2.60;;;8.00;99.20;;;8.23;66.45;97965.00;5024070;28;20065;-51
2022/01/02 04:53:47;;;;;;;5.80;3.70;;;8.10;99.30;;;8.24;66.52;97965.84;5008879;28;20360;-50
2022/01/02 04:56:16;;;;;;;4.73;4.10;;;8.10;99.40;;;8.24;66.42;97971.16;5007062;28;20049;-49
2022/01/02 04:58:44;;;;;;;5.80;3.80;;;8.10;99.20;;;8.21;66.34;97968.78;5036573;28;20053;-48
2022/01/02 05:01:14;;;;;;;4.03;3.40;;;8.00;98.70;;;8.18;66.56;97969.03;5041544;28;20054;-51
2022/01/02 05:03:43;;;;;;;7.10;3.57;;;8.00;98.90;;;8.15;66.10;97956.91;5041331;28;20053;-47
2022/01/02 05:06:13;;;;;;;5.00;3.53;;;7.90;99.30;;;8.15;66.51;97956.91;5024439;28;20054;-48
2022/01/02 05:08:45;;;;;;;5.53;3.57;;;7.90;99.50;;;8.15;66.51;97950.75;5024052;28;20359;-49
2022/01/02 05:11:14;;;;;;;6.97;3.70;;;7.90;99.50;;;8.14;66.50;97943.75;5024947;28;20053;-48
2022/01/02 05:13:43;;;;;;;6.00;4.50;;;7.90;99.50;;;8.10;66.64;97940.53;5024959;28;20049;-47
2022/01/02 05:16:12;;;;;;;5.20;2.93;;;7.80;99.40;;;8.12;66.49;97924.50;5023891;28;20229;-50
2022/01/02 05:18:42;;;;;;;3.77;2.33;;;7.80;99.30;;;8.12;66.39;97930.63;5039110;28;20344;-49
2022/01/02 05:21:10;;;;;;;5.27;2.27;;;7.90;98.80;;;8.10;66.54;97924.63;5025437;28;20050;-50
2022/01/02 05:23:38;;;;;;;3.63;2.53;;;7.80;98.60;;;8.09;66.37;97931.75;5039870;28;20267;-47
2022/01/02 05:26:06;;;;;;;2.80;2.13;;;7.80;99.10;;;8.14;66.63;97925.19;5039879;28;20062;-50
2022/01/02 05:28:34;;;;;;;3.60;2.00;;;7.90;99.20;;;8.19;66.54;97922.97;5008620;28;20044;-49
2022/01/02 05:31:03;;;;;;;3.43;2.63;;;8.00;98.80;;;8.26;66.49;97916.16;5039842;28;20053;-51
2022/01/02 05:33:32;;;;;;;4.47;2.30;;;8.10;98.50;;;8.30;66.44;97914.88;5040663;28;20064;-47
2022/01/02 05:36:01;;;;;;;3.07;2.10;;;8.10;98.00;;;8.35;66.30;97917.13;5023674;28;20045;-49
2022/01/02 05:38:31;;;;;;;4.30;2.17;;;8.20;97.70;;;8.37;66.16;97915.97;5006915;28;20049;-49
2022/01/02 05:40:58;;;;;;;3.57;2.10;;;8.20;96.90;;;8.38;66.17;97909.72;5007824;28;20084;-50
2022/01/02 05:43:27;;;;;;;3.73;1.90;;;8.20;97.00;;;8.41;66.04;97906.81;5023726;28;20080;-50
2022/01/02 05:45:55;;;;;;;2.73;2.13;;;8.20;97.30;;;8.46;66.19;97906.38;5022918;28;20060;-48
2022/01/02 05:48:23;;;;;;;4.03;2.53;;;8.30;97.50;;;8.47;66.16;97908.03;5039750;28;20065;-52
2022/01/02 05:50:54;;;;;;;3.77;2.67;;;8.30;97.30;;;8.49;66.10;97898.13;5006137;28;20063;-49
2022/01/02 05:53:22;;;;;;;3.90;2.40;;;8.30;97.40;;;8.51;65.94;97900.66;5007898;28;20363;-50
2022/01/02 05:55:50;;;;;;;3.20;2.70;;;8.30;97.00;;;8.49;65.97;97898.13;5023138;28;20060;-50
2022/01/02 05:58:18;;;;;;;4.57;2.83;;;8.30;96.80;;;8.50;65.83;97899.00;5039855;28;20050;-50
2022/01/02 06:00:46;;;;;;;5.37;4.10;;;8.30;96.80;;;8.50;66.10;97891.03;5023350;28;20382;-49
2022/01/02 06:03:14;;;;;;;5.70;4.67;;;8.30;96.70;;;8.48;65.83;97892.00;5008343;28;20049;-49
2022/01/02 06:05:42;;;;;;;4.87;3.43;;;8.30;96.70;;;8.50;66.03;97891.03;5023420;28;20046;-50
2022/01/02 06:08:10;;;;;;;4.17;3.50;;;8.30;96.70;;;8.51;65.71;97890.03;5022975;28;20225;-49
2022/01/02 06:10:38;;;;;;;3.90;3.27;;;8.30;96.30;;;8.49;65.68;97892.81;5041072;28;20372;-51
2022/01/02 06:13:06;;;;;;;4.17;3.17;;;8.30;95.30;;;8.49;65.67;97884.84;5022522;28;20072;-52
2022/01/02 06:15:35;;;;;;;3.70;2.93;;;8.30;95.80;;;8.53;65.65;97898.69;5023778;28;20056;-49
2022/01/02 06:18:03;;;;;;;5.53;3.27;;;8.40;95.60;;;8.58;65.93;97885.84;5021894;28;20189;-48
2022/01/02 06:20:34;;;;;;;4.67;3.53;;;8.50;95.80;;;8.60;65.75;97884.69;5039680;28;20093;-49
2022/01/02 06:23:02;;;;;;;5.13;3.20;;;8.50;95.80;;;8.63;65.93;97878.28;5039603;28;20061;-51
2022/01/02 06:25:30;;;;;;;7.77;4.80;;;8.50;96.00;;;8.64;65.93;97878.13;5023745;28;20063;-52
2022/01/02 06:27:58;;;;;;;5.93;3.80;;;8.50;95.90;;;8.65;65.74;97879.81;5007990;28;20060;-52
2022/01/02 06:30:26;;;;;;;4.93;3.80;;;8.50;96.00;;;8.66;65.84;97876.16;5023852;28;20057;-49
2022/01/02 06:32:55;;;;;;;4.43;3.40;;;8.50;96.00;;;8.69;65.90;97891.00;5023160;28;20061;-50
2022/01/02 06:35:34;;;;;;;4.20;3.40;;;8.50;95.80;;;8.71;66.01;97882.88;5038806;28;20264;-49
2022/01/02 06:38:18;;;;;;;4.97;3.20;;;8.60;95.70;;;8.72;65.75;97897.81;5039476;28;20376;-54
2022/01/02 06:40:50;;;;;;;5.40;3.23;;;8.50;95.50;;;8.70;65.67;97905.91;5023260;28;20339;-52
2022/01/02 06:43:21;;;;;;;3.33;2.33;;;8.50;95.70;;;8.71;65.78;97897.00;5022868;28;20050;-48
2022/01/02 06:45:49;;;;;;;4.57;2.80;;;8.50;95.90;;;8.73;65.79;97881.75;5021665;28;20050;-50
2022/01/02 06:48:17;;;;;;;4.50;2.70;;;8.50;95.80;;;8.77;65.79;97887.63;5039333;28;20061;-48
2022/01/02 06:50:46;;;;;;;4.60;3.33;;;8.50;95.90;;;8.77;65.88;97884.97;5024178;28;20060;-48
2022/01/02 06:53:14;;;;;;;4.77;3.30;;;8.60;95.80;;;8.74;65.87;97886.06;5008999;28;20046;-49
2022/01/02 06:55:42;;;;;;;5.10;3.70;;;8.50;96.00;;;8.74;65.76;97870.13;5026466;28;20525;-50
2022/01/02 06:58:10;;;;;;;5.03;3.10;;;8.60;96.00;;;8.72;65.77;97872.09;5026341;28;20058;-47
2022/01/02 07:00:38;;;;;;;5.33;3.43;;;8.50;95.90;;;8.69;65.42;97871.56;5010912;28;20054;-49
2022/01/02 07:03:07;;;;;;;4.30;3.87;;;8.50;95.60;;;8.64;65.53;97874.66;5027370;28;20050;-49
2022/01/02 07:05:36;;;;;;;6.73;3.97;;;8.40;95.30;;;8.57;65.61;97871.75;5042549;28;20291;-49
2022/01/02 07:08:05;;;;;;;5.60;3.30;;;8.30;95.00;;;8.52;65.40;97881.94;5025482;28;20367;-50
2022/01/02 07:10:34;;;;;;;6.23;3.63;;;8.20;94.90;;;8.45;65.20;97872.84;5025404;28;20095;-52
2022/01/02 07:13:02;;;;;;;9.73;6.57;;;8.20;95.40;;;8.40;65.43;97859.16;5009700;28;20050;-47
2022/01/02 07:15:29;;;;;;;13.07;8.63;;;8.10;95.50;;;8.34;65.43;97863.22;5009957;28;20050;-48
2022/01/02 07:17:58;;;;;;;6.57;5.20;;;8.00;95.60;;;8.29;65.40;97845.06;5011164;28;20054;-53
2022/01/02 07:20:26;;;;;;;9.00;7.17;;;8.00;96.10;;;8.28;65.76;97851.38;5012043;28;20064;-47
2022/01/02 07:22:54;;;;;;;10.43;6.80;;;8.00;96.30;;;8.26;65.55;97863.09;5011025;28;20324;-48
2022/01/02 07:25:22;;;;;;;12.63;8.00;;;8.00;96.70;;;8.25;65.76;97853.47;5009686;28;20056;-49
2022/01/02 07:27:50;;;;;;;11.07;8.77;;;8.00;96.60;;;8.26;65.53;97855.16;5009346;28;20503;-48
2022/01/02 07:30:18;;;;;;;10.00;5.83;;;8.10;97.20;;;8.24;65.81;97857.94;5041063;28;20061;-51
2022/01/02 07:32:47;;;;;;;9.17;4.67;;;8.00;96.20;;;8.23;65.66;97869.50;5010604;28;20050;-50
2022/01/02 07:35:15;;;;;;;6.77;4.80;;;8.00;96.70;;;8.24;65.78;97881.81;5008576;28;20057;-51
2022/01/02 07:37:42;;;;;;;10.73;7.93;;;8.00;96.60;;;8.23;65.61;97882.75;5009421;28;20060;-50
2022/01/02 07:40:11;;;;;;;8.43;5.77;;;8.00;95.90;;;8.20;65.61;97871.59;5010619;28;20050;-51
2022/01/02 07:42:38;;;;;;;8.17;5.10;;;7.90;96.00;;;8.16;65.44;97871.06;5009206;28;20056;-48
2022/01/02 07:45:13;;;;;;;5.87;4.87;;;7.90;96.20;;;8.15;65.53;97881.81;5023472;28;20045;-51
2022/01/02 07:47:42;;;;;;;6.63;5.10;;;7.80;96.50;;;8.12;65.48;97885.56;5008445;28;20064;-50
2022/01/02 07:50:10;;;;;;;7.27;5.63;;;7.80;96.20;;;8.07;65.46;97878.03;5009730;28;20480;-51
2022/01/02 07:52:39;;;;;;;6.67;5.70;;;7.80;97.00;;;8.07;65.97;97891.28;5007216;28;20049;-51
2022/01/02 07:55:07;;;;;;;7.83;4.50;;;7.80;97.20;;;8.05;65.69;97882.63;4999891;28;20053;-51
2022/01/02 07:57:35;;;;;;;6.57;4.67;;;7.80;97.40;;;8.03;65.79;97876.63;5003295;28;20060;-52
2022/01/02 08:00:05;;;;;;;5.77;3.20;;;7.80;97.20;;;8.02;65.78;97885.56;5009910;28;20053;-52
2022/01/02 08:02:39;;;;;;;4.77;2.90;;;7.70;96.90;;;8.03;65.86;97886.41;5012814;28;20049;-52
2022/01/02 08:05:10;;;;;;;7.37;3.60;;;7.80;96.80;;;8.04;65.69;97882.78;5008519;28;20053;-49
2022/01/02 08:07:40;;;;;;;3.93;2.83;;;7.70;96.70;;;8.01;65.50;97878.59;5008723;28;20058;-52
2022/01/02 08:10:09;;;;;;;6.23;3.70;;;7.70;96.40;;;7.99;65.60;97885.03;5011965;28;20257;-51
2022/01/02 08:12:36;;;;;;;8.97;5.40;;;7.60;96.50;;;7.86;65.75;97874.69;5008844;28;20058;-49
2022/01/02 08:15:05;;;;;;;8.27;6.87;;;7.60;97.00;;;7.88;65.59;97880.69;5008240;28;20054;-47
2022/01/02 08:17:33;;;;;;;13.83;8.57;;;7.60;97.40;;;7.88;66.07;97876.22;5008722;28;20332;-51
2022/01/02 08:20:01;;;;;;;12.90;8.43;;;7.60;97.40;;;7.88;65.83;97878.84;5008851;28;20042;-51
2022/01/02 08:22:28;;;;;;;9.73;5.83;;;7.60;97.40;;;7.90;66.02;97881.38;5007806;28;20041;-50
2022/01/02 08:24:56;;;;;;;23.00;15.57;;;7.60;97.80;;;7.94;66.33;97874.81;5008891;28;20049;-48
2022/01/02 08:27:24;;;;;;;14.20;10.00;;;7.70;98.10;;;7.96;66.10;97880.81;5008320;28;20252;-51
2022/01/02 08:29:52;;;;;;;11.50;7.10;;;7.80;97.80;;;7.98;66.30;97875.38;5009048;28;20280;-50
2022/01/02 08:32:20;;;;;;;6.67;4.60;;;7.80;98.10;;;8.01;66.29;97856.56;5009235;28;20058;-49
2022/01/02 08:34:52;;;;;;;9.17;4.93;;;7.80;98.30;;;8.06;66.30;97860.47;5008133;28;20105;-49
2022/01/02 08:37:20;;;;;;;8.77;5.07;;;7.90;98.30;;;8.12;66.30;97863.50;5008278;28;20061;-48
2022/01/02 08:39:48;;;;;;;10.20;7.00;;;7.90;98.30;;;8.17;66.35;97858.63;5009062;28;20050;-47
2022/01/02 08:42:16;;;;;;;15.90;8.00;;;8.00;98.40;;;8.20;66.47;97858.34;5008064;28;20054;-47
2022/01/02 08:44:44;;;;;;;15.47;8.60;;;8.00;98.30;;;8.25;66.75;97869.38;5008831;28;20240;-51
2022/01/02 08:47:12;;;;;;;17.37;9.20;;;8.10;99.00;;;8.33;66.58;97864.19;5007030;28;20049;-49
2022/01/02 08:49:40;;;;;;;18.13;9.70;;;8.20;98.70;;;8.37;66.50;97862.91;5008656;28;20072;-50
2022/01/02 08:52:08;;;;;;;12.80;6.87;;;8.20;98.60;;;8.43;66.72;97866.84;5007797;28;20369;-50
2022/01/02 08:54:38;;;;;;;13.77;8.43;;;8.30;98.70;;;8.50;66.67;97875.09;5007360;28;20240;-48
2022/01/02 08:57:06;;;;;;;16.43;8.43;;;8.40;98.90;;;8.56;66.61;97872.69;5007905;28;20068;-49
2022/01/02 08:59:34;;;;;;;17.40;7.60;;;8.50;98.20;;;8.63;66.42;97870.34;5009093;28;20046;-48
2022/01/02 09:02:02;;;;;;;13.50;7.70;;;8.50;98.00;;;8.67;66.37;97879.69;5014784;28;20056;-50
2022/01/02 09:04:30;;;;;;;13.70;7.00;;;8.50;98.10;;;8.71;66.32;97888.19;5011404;28;20037;-48
2022/01/02 09:06:58;;;;;;;11.60;6.63;;;8.60;98.20;;;8.74;66.26;97874.63;5015695;28;20058;-47
2022/01/02 09:09:26;;;;;;;10.80;6.07;;;8.60;97.60;;;8.79;66.32;97869.72;5018400;28;20064;-46
2022/01/02 09:11:55;;;;;;;11.00;4.80;;;8.70;97.50;;;8.84;66.40;97857.69;5016015;28;20256;-48
2022/01/02 09:14:26;;;;;;;8.20;5.20;;;8.80;97.20;;;8.91;66.10;97857.09;5019551;28;20057;-50
2022/01/02 09:16:54;;;;;;;8.63;5.20;;;8.80;96.70;;;8.97;66.29;97865.31;5016223;28;20397;-51
2022/01/02 09:19:22;;;;;;;7.33;4.00;;;8.90;96.80;;;9.00;65.97;97857.06;5021814;28;20057;-50
2022/01/02 09:21:49;;;;;;;4.13;2.40;;;9.00;96.50;;;9.06;66.05;97861.78;5027633;28;20243;-51
2022/01/02 09:24:18;;;;;;;4.73;2.53;;;9.00;95.50;;;9.14;66.06;97866.38;5027210;28;20371;-50
2022/01/02 09:26:45;;;;;;;2.93;1.67;;;9.20;94.80;;;9.20;66.00;97863.13;4998589;28;20060;-51
2022/01/02 09:29:13;;;;;;;3.33;1.60;;;9.20;94.20;;;9.28;65.60;97878.31;5006812;28;20339;-52
2022/01/02 09:31:41;;;;;;;2.70;1.80;;;9.30;93.80;;;9.34;65.39;97883.03;5008314;28;20052;-51
2022/01/02 09:34:09;;;;;;;2.93;1.57;;;9.40;93.10;;;9.40;65.25;97890.44;5007991;28;20248;-51
2022/01/02 09:36:37;;;;;;;3.63;1.77;;;9.40;92.20;;;9.47;65.28;97890.69;5007148;28;20072;-48
2022/01/02 09:39:05;;;;;;;5.70;2.63;;;9.50;91.60;;;9.52;65.19;97895.53;5007094;28;20038;-53
2022/01/02 09:41:33;;;;;;;2.90;1.90;;;9.60;91.50;;;9.57;65.15;97891.47;5007234;28;20371;-52
2022/01/02 09:44:02;;;;;;;6.37;3.60;;;9.60;91.20;;;9.61;65.06;97892.00;5007041;28;20042;-53
2022/01/02 09:46:30;;;;;;;6.80;4.37;;;9.70;91.60;;;9.65;65.23;97894.22;5007613;28;20053;-53
2022/01/02 09:48:59;;;;;;;7.13;4.50;;;9.70;92.10;;;9.69;65.29;97885.94;5007077;28;20049;-51
2022/01/02 09:51:27;;;;;;;8.60;5.90;;;9.70;93.00;;;9.71;65.07;97876.81;5004973;28;20248;-51
2022/01/02 09:53:56;;;;;;;8.50;5.90;;;9.70;92.40;;;9.75;65.34;97877.34;5007145;28;20086;-53
2022/01/02 09:56:24;;;;;;;15.70;9.37;;;9.80;92.60;;;9.78;65.23;97872.56;5007922;28;20050;-52
2022/01/02 09:58:52;;;;;;;14.07;8.93;;;9.80;92.40;;;9.80;65.16;97867.13;5006718;28;20080;-53
2022/01/02 10:01:23;;;;;;;14.77;8.83;;;9.80;92.50;;;9.84;65.42;97876.47;5007577;28;20064;-49
2022/01/02 10:03:55;;;;;;;10.50;7.00;;;9.90;92.70;;;9.85;65.05;97870.16;5006941;28;20064;-49
2022/01/02 10:06:48;;;;;;;9.53;6.20;;;9.90;92.50;;;9.89;65.38;97870.69;5007059;28;20137;-50
2022/01/02 10:09:33;;;;;;;7.30;4.43;;;9.90;92.20;;;9.88;65.14;97872.50;5009106;28;20060;-52
2022/01/02 10:12:30;;;;;;;7.03;3.93;;;9.90;93.70;;;9.84;65.17;97871.16;5005863;28;20045;-51
2022/01/02 10:15:15;;;;;;;4.37;3.50;;;9.80;94.00;;;9.81;65.49;97863.50;5007341;28;20061;-53
2022/01/02 10:18:05;;;;;;;5.90;4.43;;;9.70;94.30;;;9.78;65.56;97861.94;5007134;28;20057;-54
2022/01/02 10:20:40;;;;;;;6.93;4.63;;;9.70;94.10;;;9.77;65.57;97870.06;5007649;28;20050;-54
2022/01/02 10:23:14;;;;;;;5.73;4.07;;;9.70;94.60;;;9.74;65.88;97860.56;5006592;28;20056;-52
2022/01/02 10:25:46;;;;;;;5.63;3.92;;;9.60;95.00;;;9.73;65.58;97858.94;5006792;28;20046;-50
2022/01/02 10:28:29;;;;;;;6.77;4.43;;;9.70;95.00;;;9.72;65.70;97843.13;5006126;28;20041;-49
2022/01/02 10:31:16;;;;;;;6.23;4.40;;;9.70;95.30;;;9.75;65.80;97833.03;5007418;28;20053;-50
2022/01/02 10:33:50;;;;;;;6.27;4.53;;;9.70;95.70;;;9.78;65.93;97816.75;5006681;28;20052;-49
2022/01/02 10:36:42;;;;;;;22.27;13.63;;;9.70;95.90;;;9.79;66.00;97821.09;5007486;28;20096;-53
2022/01/02 10:39:15;;;;;;;26.37;14.67;;;9.70;96.10;;;9.78;65.92;97794.66;5006474;28;20323;-49
2022/01/02 10:41:45;;;;;;;12.50;9.32;;;9.70;97.20;;;9.77;65.96;97807.13;5007351;28;20054;-49
2022/01/02 10:44:20;;;;;;;11.97;8.83;;;9.70;96.60;;;9.73;66.15;97787.13;5006028;28;20340;-49
2022/01/02 10:47:15;;;;;;;20.30;14.60;;;9.70;96.70;;;9.74;66.22;97788.78;5006520;28;20046;-53
2022/01/02 10:50:03;;;;;;;11.33;8.77;;;9.70;97.20;;;9.76;66.04;97797.44;5006287;28;20080;-53